Time;durP1;ratioP1;P1;durP2;ratioP2;P2;SDS_P1;SDS_P2;PMS_P1;PMS_P2;Temp;Humidity;BMP_temperature;BMP_pressure;BME280_temperature;BME280_humidity;BME280_pressure;Samples;Min_cycle;Max_cycle;Signal;HPM_P1;HPM_P2
2022/07/01 00:00:18;;;;;;;13.37;12.50;;;22.40;1.00;;;;;;6311522;28;20259;-55
2022/07/01 00:03:23;;;;;;;14.53;13.53;;;22.40;1.00;;;;;;6326538;28;20327;-54
2022/07/01 00:06:27;;;;;;;14.13;13.10;;;22.40;1.00;;;;;;6329095;28;20240;-55
2022/07/01 00:09:30;;;;;;;15.50;14.30;;;22.40;1.00;;;;;;6331638;28;20358;-56
2022/07/01 00:12:33;;;;;;;14.07;13.03;;;22.40;1.00;;;;;;6333724;28;20294;-56
2022/07/01 00:15:36;;;;;;;15.27;14.07;;;22.40;1.00;;;;;;6335048;28;20365;-55
2022/07/01 00:18:42;;;;;;;15.63;14.43;;;22.30;1.00;;;;;;6331311;28;20257;-57
2022/07/01 00:21:45;;;;;;;16.70;15.30;;;22.20;1.00;;;;;;6329089;28;20745;-54
2022/07/01 00:24:48;;;;;;;15.10;13.70;;;22.20;1.00;;;;;;6307121;28;20232;-54
2022/07/01 00:27:51;;;;;;;17.47;16.07;;;22.20;1.00;;;;;;6307947;28;20252;-53
2022/07/01 00:30:54;;;;;;;16.63;15.27;;;22.20;1.00;;;;;;6321601;28;20733;-55
2022/07/01 00:33:58;;;;;;;15.67;14.47;;;22.20;1.00;;;;;;6322358;28;20910;-54
2022/07/01 00:37:01;;;;;;;16.40;14.97;;;22.10;1.00;;;;;;6331069;28;20255;-56
2022/07/01 00:40:06;;;;;;;15.80;14.57;;;22.10;1.00;;;;;;6327685;28;20243;-55
2022/07/01 00:43:10;;;;;;;17.50;16.00;;;22.00;1.00;;;;;;6309165;28;20517;-54
2022/07/01 00:46:13;;;;;;;16.60;15.40;;;22.00;1.00;;;;;;6309355;28;20236;-55
2022/07/01 00:49:23;;;;;;;17.13;15.83;;;22.00;1.00;;;;;;6311578;28;20233;-55
2022/07/01 00:52:27;;;;;;;17.80;16.37;;;22.00;1.00;;;;;;6325111;28;20242;-55
2022/07/01 00:55:32;;;;;;;16.50;15.17;;;22.00;1.00;;;;;;6311985;28;20228;-55
2022/07/01 00:58:35;;;;;;;18.30;16.87;;;21.90;1.00;;;;;;6308860;28;20245;-55
2022/07/01 01:01:37;;;;;;;16.00;14.70;;;21.90;1.00;;;;;;6311876;28;20232;-55
2022/07/01 01:04:42;;;;;;;17.57;16.27;;;21.90;1.00;;;;;;6326489;28;20240;-56
2022/07/01 01:07:45;;;;;;;17.00;15.63;;;21.90;1.00;;;;;;6331581;28;20258;-56
2022/07/01 01:10:49;;;;;;;17.00;15.60;;;21.90;1.00;;;;;;6311081;28;20317;-56
2022/07/01 01:13:51;;;;;;;16.70;15.40;;;21.90;1.00;;;;;;6309767;28;20753;-55
2022/07/01 01:16:54;;;;;;;19.83;17.97;;;21.80;1.00;;;;;;6308334;28;20236;-55
2022/07/01 01:19:59;;;;;;;18.03;16.67;;;21.80;1.00;;;;;;6309012;28;20800;-55
2022/07/01 01:23:05;;;;;;;18.60;17.07;;;21.80;1.00;;;;;;6306344;28;20336;-55
2022/07/01 01:26:19;;;;;;;21.17;19.30;;;21.70;1.00;;;;;;6310100;28;20292;-54
2022/07/01 01:29:22;;;;;;;19.13;17.63;;;21.70;1.00;;;;;;6314699;28;20321;-56
2022/07/01 01:32:34;;;;;;;21.00;19.33;;;21.70;1.00;;;;;;6324825;28;20235;-54
2022/07/01 01:35:38;;;;;;;20.73;18.90;;;21.70;1.00;;;;;;6333131;28;20313;-54
2022/07/01 01:38:42;;;;;;;20.90;19.13;;;21.70;1.00;;;;;;6329552;28;20292;-54
2022/07/01 01:41:47;;;;;;;19.33;17.53;;;21.70;1.00;;;;;;6333871;28;20228;-55
2022/07/01 01:44:51;;;;;;;19.70;18.00;;;21.70;1.00;;;;;;6308850;28;20327;-55
2022/07/01 01:47:54;;;;;;;19.47;17.60;;;21.60;1.00;;;;;;6306971;28;20744;-55
2022/07/01 01:50:57;;;;;;;18.73;17.23;;;21.60;1.00;;;;;;6309874;28;20236;-55
2022/07/01 01:54:02;;;;;;;21.97;20.23;;;21.60;1.00;;;;;;6305303;28;20312;-55
2022/07/01 01:57:05;;;;;;;22.13;20.27;;;21.60;1.00;;;;;;6308274;28;20510;-55
2022/07/01 02:00:09;;;;;;;20.00;18.33;;;21.60;1.00;;;;;;6308276;28;20300;-55
2022/07/01 02:03:19;;;;;;;22.10;20.20;;;21.60;1.00;;;;;;6317992;28;20373;-55
2022/07/01 02:06:23;;;;;;;21.90;20.00;;;21.50;1.00;;;;;;6331386;28;20255;-55
2022/07/01 02:09:28;;;;;;;23.80;21.37;;;21.50;1.00;;;;;;6323730;28;20321;-56
2022/07/01 02:12:32;;;;;;;23.13;20.93;;;21.50;1.00;;;;;;6313271;28;20736;-55
2022/07/01 02:15:35;;;;;;;22.73;20.57;;;21.50;1.00;;;;;;6326254;28;20319;-55
2022/07/01 02:18:38;;;;;;;23.20;21.10;;;21.50;1.00;;;;;;6331551;28;20720;-56
2022/07/01 02:21:41;;;;;;;21.17;19.37;;;21.50;1.00;;;;;;6324888;28;20323;-56
2022/07/01 02:24:46;;;;;;;24.97;22.70;;;21.50;1.00;;;;;;6306076;28;20321;-55
2022/07/01 02:27:49;;;;;;;23.70;21.67;;;21.50;1.00;;;;;;6306001;28;20240;-55
2022/07/01 02:30:52;;;;;;;24.07;21.97;;;21.40;1.00;;;;;;6325672;28;20463;-55
2022/07/01 02:33:56;;;;;;;24.50;22.30;;;21.40;1.00;;;;;;6321210;28;20310;-56
2022/07/01 02:36:58;;;;;;;24.13;21.97;;;21.40;1.00;;;;;;6330613;28;20691;-54
2022/07/01 02:40:03;;;;;;;24.37;22.20;;;21.40;1.00;;;;;;6331442;28;20252;-56
2022/07/01 02:43:07;;;;;;;23.20;21.10;;;21.40;1.00;;;;;;6308031;28;20311;-56
2022/07/01 02:46:09;;;;;;;23.83;21.53;;;21.40;1.00;;;;;;6306242;28;20237;-53
2022/07/01 02:49:12;;;;;;;25.30;23.10;;;21.40;1.00;;;;;;6305604;28;20224;-55
2022/07/01 02:52:16;;;;;;;25.47;23.27;;;21.40;1.00;;;;;;6327333;28;20652;-56
2022/07/01 02:55:20;;;;;;;26.20;23.77;;;21.40;1.00;;;;;;6326821;28;20306;-56
2022/07/01 02:58:23;;;;;;;25.03;22.77;;;21.40;1.00;;;;;;6327015;28;20242;-56
2022/07/01 03:01:26;;;;;;;27.87;22.30;;;21.40;1.00;;;;;;6315501;28;20249;-56
2022/07/01 03:04:29;;;;;;;24.57;22.17;;;21.40;1.00;;;;;;6335768;28;20704;-55
2022/07/01 03:07:34;;;;;;;23.50;21.43;;;21.40;1.00;;;;;;6333178;28;20480;-55
2022/07/01 03:10:39;;;;;;;24.27;21.73;;;21.40;1.00;;;;;;6315645;28;20244;-55
2022/07/01 03:13:43;;;;;;;25.27;23.13;;;21.40;1.00;;;;;;6312069;28;20728;-56
2022/07/01 03:16:47;;;;;;;24.40;22.10;;;21.30;1.00;;;;;;6310951;28;20236;-55
2022/07/01 03:19:52;;;;;;;24.10;21.90;;;21.40;1.00;;;;;;6311841;28;20255;-54
2022/07/01 03:22:55;;;;;;;26.43;23.87;;;21.40;1.00;;;;;;6323429;28;20356;-55
2022/07/01 03:26:07;;;;;;;25.80;23.37;;;21.30;1.00;;;;;;6336959;28;20323;-55
2022/07/01 03:29:11;;;;;;;25.33;23.07;;;21.30;1.00;;;;;;6295472;28;20597;-55
2022/07/01 03:32:15;;;;;;;27.87;25.10;;;21.30;1.00;;;;;;6304599;27;20265;-54
2022/07/01 03:38:38;;;;;;;25.60;23.10;;;21.40;1.00;;;;;;6328872;28;20501;-54
2022/07/01 03:41:42;;;;;;;27.07;24.47;;;21.30;1.00;;;;;;6340843;27;20352;-56
2022/07/01 03:44:45;;;;;;;25.20;22.90;;;21.40;1.00;;;;;;6317060;28;20362;-60
2022/07/01 03:47:49;;;;;;;24.80;22.47;;;21.40;1.00;;;;;;6334392;27;20336;-55
2022/07/01 03:50:51;;;;;;;25.33;23.03;;;21.40;1.00;;;;;;6333563;28;20243;-55
2022/07/01 03:57:17;;;;;;;25.03;22.83;;;21.50;1.00;;;;;;6323272;28;20365;-54
2022/07/01 04:00:20;;;;;;;26.80;24.13;;;21.50;1.00;;;;;;6325576;28;20357;-55
2022/07/01 04:03:22;;;;;;;27.83;25.20;;;21.50;1.00;;;;;;6325060;28;20639;-56
2022/07/01 04:06:26;;;;;;;27.30;24.70;;;21.50;1.00;;;;;;6329035;28;20243;-56
2022/07/01 04:09:30;;;;;;;26.03;23.70;;;21.60;1.00;;;;;;6325046;28;20524;-56
2022/07/01 04:12:34;;;;;;;26.53;23.97;;;21.60;1.00;;;;;;6327505;28;20250;-55
2022/07/01 04:15:37;;;;;;;26.60;24.20;;;21.60;1.00;;;;;;6335678;28;20302;-56
2022/07/01 04:18:41;;;;;;;26.80;24.47;;;21.70;1.00;;;;;;6331085;28;20236;-56
2022/07/01 04:25:05;;;;;;;27.30;24.77;;;21.80;1.00;;;;;;6332857;28;20724;-55
2022/07/01 04:28:10;;;;;;;28.23;25.27;;;21.80;1.00;;;;;;6332319;27;20351;-54
2022/07/01 04:31:13;;;;;;;28.43;25.53;;;21.80;1.00;;;;;;6332690;28;20685;-54
2022/07/01 04:34:15;;;;;;;28.27;25.57;;;21.90;1.00;;;;;;6332470;28;20239;-55
2022/07/01 04:37:21;;;;;;;26.10;23.80;;;22.00;1.00;;;;;;6330574;28;20246;-54
2022/07/01 04:40:24;;;;;;;27.40;24.90;;;22.10;1.00;;;;;;6329248;28;20311;-54
2022/07/01 04:43:28;;;;;;;27.43;25.10;;;22.10;1.00;;;;;;6332849;28;20233;-57
2022/07/01 04:46:31;;;;;;;28.37;25.60;;;22.20;1.00;;;;;;6333291;28;20380;-55
2022/07/01 04:49:34;;;;;;;26.77;24.27;;;22.20;1.00;;;;;;6327028;27;20240;-56
2022/07/01 04:52:37;;;;;;;27.80;25.10;;;22.30;1.00;;;;;;6317567;28;20235;-56
2022/07/01 04:55:40;;;;;;;27.37;24.83;;;22.40;1.00;;;;;;6290322;28;20693;-54
2022/07/01 04:58:44;;;;;;;26.50;24.07;;;22.50;1.00;;;;;;6305156;28;20271;-55
2022/07/01 05:01:49;;;;;;;28.13;25.13;;;22.70;1.00;;;;;;6323476;28;20751;-55
2022/07/01 05:04:53;;;;;;;29.53;26.63;;;22.80;1.00;;;;;;6321847;28;20305;-55
2022/07/01 05:07:56;;;;;;;27.00;24.67;;;22.90;1.00;;;;;;6312977;28;20833;-55
2022/07/01 05:10:59;;;;;;;27.17;24.83;;;23.10;1.00;;;;;;6319626;28;20843;-55
2022/07/01 05:14:03;;;;;;;26.97;24.67;;;23.30;1.00;;;;;;6331754;28;20315;-54
2022/07/01 05:17:06;;;;;;;26.77;24.13;;;23.50;1.00;;;;;;6318410;28;20320;-55
2022/07/01 05:23:31;;;;;;;24.50;22.37;;;23.80;1.00;;;;;;6314206;28;20241;-53
2022/07/01 05:26:34;;;;;;;26.93;24.23;;;24.10;1.00;;;;;;6331449;28;20301;-55
2022/07/01 05:29:39;;;;;;;26.93;24.43;;;24.30;1.00;;;;;;6326406;27;20236;-55
2022/07/01 05:32:44;;;;;;;24.77;22.47;;;24.60;1.00;;;;;;6328527;28;20377;-55
2022/07/01 05:35:53;;;;;;;25.63;23.43;;;25.00;1.00;;;;;;6330919;28;20315;-55
2022/07/01 05:39:08;;;;;;;26.87;24.27;;;25.40;1.00;;;;;;6318696;28;20251;-56
2022/07/01 05:42:11;;;;;;;24.70;22.60;;;25.80;1.00;;;;;;6322430;28;20324;-56
2022/07/01 05:45:19;;;;;;;22.53;20.73;;;26.30;1.00;;;;;;6321645;28;20325;-57
2022/07/01 05:48:22;;;;;;;23.17;20.97;;;26.70;1.00;;;;;;6316845;28;20245;-56
2022/07/01 05:51:25;;;;;;;25.00;22.70;;;26.70;1.00;;;;;;6328234;28;20326;-55
2022/07/01 05:54:28;;;;;;;24.60;22.13;;;26.50;1.00;;;;;;6314321;28;20255;-56
2022/07/01 05:57:31;;;;;;;25.27;22.87;;;26.40;1.00;;;;;;6325523;28;20854;-55
2022/07/01 06:00:36;;;;;;;24.43;22.20;;;26.20;1.00;;;;;;6319338;28;20232;-55
2022/07/01 06:03:39;;;;;;;23.17;20.97;;;26.10;1.00;;;;;;6324559;28;20421;-57
2022/07/01 06:06:42;;;;;;;22.23;20.30;;;25.90;1.00;;;;;;6321765;28;20259;-56
2022/07/01 06:09:45;;;;;;;23.57;21.53;;;25.80;1.00;;;;;;6325879;28;20324;-57
2022/07/01 06:12:48;;;;;;;22.67;20.73;;;25.70;1.00;;;;;;6326779;28;20889;-56
2022/07/01 06:15:53;;;;;;;25.50;23.10;;;25.60;1.00;;;;;;6323859;28;21062;-56
2022/07/01 06:18:55;;;;;;;23.77;21.27;;;25.60;1.00;;;;;;6324602;28;20244;-56
2022/07/01 06:21:58;;;;;;;23.53;21.53;;;25.80;1.00;;;;;;6318915;28;20300;-56
2022/07/01 06:25:03;;;;;;;24.07;22.00;;;25.90;1.00;;;;;;6324246;28;20240;-56
2022/07/01 06:28:07;;;;;;;23.20;21.17;;;26.00;1.00;;;;;;6312932;28;20235;-56
2022/07/01 06:31:12;;;;;;;26.33;23.63;;;26.10;1.00;;;;;;6319069;28;20315;-55
2022/07/01 06:34:15;;;;;;;23.43;21.43;;;26.00;1.00;;;;;;6319848;28;20240;-55
2022/07/01 06:37:23;;;;;;;25.13;22.93;;;25.90;1.00;;;;;;6326813;28;20264;-55
2022/07/01 06:40:26;;;;;;;25.03;22.97;;;25.80;1.00;;;;;;6327563;28;20549;-57
2022/07/01 06:43:29;;;;;;;25.93;23.37;;;25.80;1.00;;;;;;6336154;28;20322;-56
2022/07/01 06:46:34;;;;;;;26.20;23.63;;;25.70;1.00;;;;;;6331781;28;20370;-55
2022/07/01 06:49:37;;;;;;;24.87;22.67;;;25.70;1.00;;;;;;6324267;28;20240;-55
2022/07/01 06:52:43;;;;;;;23.50;21.50;;;25.80;1.00;;;;;;6302675;28;20291;-56
2022/07/01 06:55:46;;;;;;;25.03;22.70;;;25.80;1.00;;;;;;6332782;28;20262;-56
2022/07/01 06:58:53;;;;;;;23.27;21.37;;;25.90;1.00;;;;;;6335012;28;20729;-55
2022/07/01 07:01:58;;;;;;;26.77;24.17;;;25.90;1.00;;;;;;6325579;28;20263;-55
2022/07/01 07:05:00;;;;;;;24.63;22.47;;;25.90;1.00;;;;;;6327204;28;20268;-55
2022/07/01 07:08:05;;;;;;;26.00;23.43;;;25.90;1.00;;;;;;6329806;28;20455;-55
2022/07/01 07:11:08;;;;;;;25.90;23.63;;;26.10;1.00;;;;;;6334463;27;20258;-55
2022/07/01 07:14:11;;;;;;;25.03;22.67;;;26.20;1.00;;;;;;6335509;28;20303;-55
2022/07/01 07:17:16;;;;;;;25.60;23.20;;;26.50;1.00;;;;;;6325883;28;20702;-55
2022/07/01 07:20:19;;;;;;;24.57;21.87;;;26.80;1.00;;;;;;6333981;28;20478;-55
2022/07/01 07:23:22;;;;;;;26.47;23.53;;;26.90;1.00;;;;;;6322489;28;20327;-57
2022/07/01 07:26:25;;;;;;;25.80;23.30;;;27.20;1.00;;;;;;6327737;28;20732;-55
2022/07/01 07:29:29;;;;;;;23.63;21.47;;;27.40;1.00;;;;;;6327217;28;20319;-54
2022/07/01 07:32:33;;;;;;;22.27;20.47;;;27.40;1.00;;;;;;6329369;28;20406;-55
2022/07/01 07:35:36;;;;;;;21.67;19.67;;;27.30;1.00;;;;;;6331548;28;20236;-54
2022/07/01 07:38:39;;;;;;;22.00;20.00;;;27.30;1.00;;;;;;6325359;28;20312;-54
2022/07/01 07:41:42;;;;;;;21.00;19.13;;;27.30;1.00;;;;;;6335330;28;20870;-55
2022/07/01 07:44:45;;;;;;;20.10;18.17;;;27.20;1.00;;;;;;6326446;28;20889;-55
2022/07/01 07:47:51;;;;;;;20.37;18.37;;;27.20;1.00;;;;;;6332116;28;20832;-55
2022/07/01 07:50:54;;;;;;;16.47;15.07;;;27.30;1.00;;;;;;6329919;28;20290;-55
2022/07/01 07:53:56;;;;;;;16.23;14.67;;;27.40;1.00;;;;;;6330024;28;20349;-56
2022/07/01 07:56:59;;;;;;;16.00;14.90;;;27.50;1.00;;;;;;6333014;28;20322;-55
2022/07/01 08:00:02;;;;;;;16.13;14.90;;;27.60;1.00;;;;;;6316675;28;20671;-55
2022/07/01 08:03:07;;;;;;;15.40;14.13;;;27.60;1.00;;;;;;6333457;28;20323;-57
2022/07/01 08:06:10;;;;;;;16.00;14.70;;;27.50;1.00;;;;;;6326265;28;20281;-57
2022/07/01 08:09:13;;;;;;;16.87;15.47;;;27.50;1.00;;;;;;6333117;28;20232;-55
2022/07/01 08:12:16;;;;;;;14.07;12.97;;;27.40;1.00;;;;;;6328584;28;20478;-61
2022/07/01 08:15:19;;;;;;;14.87;13.83;;;27.40;1.00;;;;;;6327493;28;20311;-57
2022/07/01 08:18:24;;;;;;;15.00;13.90;;;27.50;1.00;;;;;;6331975;28;20517;-56
2022/07/01 08:21:27;;;;;;;14.50;13.27;;;27.50;1.00;;;;;;6322222;28;20604;-56
2022/07/01 08:24:30;;;;;;;16.13;14.90;;;27.50;1.00;;;;;;6329420;28;20250;-56
2022/07/01 08:27:33;;;;;;;16.27;14.80;;;27.40;1.00;;;;;;6323738;28;20238;-55
2022/07/01 08:30:36;;;;;;;14.80;13.57;;;27.40;1.00;;;;;;6327361;28;20255;-57
2022/07/01 08:33:41;;;;;;;15.53;14.43;;;27.40;1.00;;;;;;6325392;28;20641;-56
2022/07/01 08:36:45;;;;;;;15.03;13.90;;;27.50;1.00;;;;;;6321538;28;20243;-55
2022/07/01 08:39:49;;;;;;;15.03;13.73;;;27.60;1.00;;;;;;6315899;28;20232;-55
2022/07/01 08:42:51;;;;;;;14.87;13.67;;;27.70;1.00;;;;;;6330539;28;20266;-55
2022/07/01 08:45:55;;;;;;;14.40;13.30;;;27.80;1.00;;;;;;6327618;28;20309;-55
2022/07/01 08:48:59;;;;;;;15.57;14.33;;;28.00;1.00;;;;;;6315612;28;20247;-54
2022/07/01 08:52:02;;;;;;;14.47;13.33;;;28.20;1.00;;;;;;6329353;28;20319;-55
2022/07/01 08:55:06;;;;;;;14.67;13.37;;;28.50;1.00;;;;;;6321068;28;20259;-54
2022/07/01 08:58:09;;;;;;;14.30;13.27;;;28.50;1.00;;;;;;6334188;27;20336;-56
2022/07/01 09:01:17;;;;;;;15.10;13.87;;;28.40;1.00;;;;;;6328827;28;20228;-56
2022/07/01 09:04:21;;;;;;;15.10;14.00;;;28.30;1.00;;;;;;6328223;28;20505;-55
2022/07/01 09:07:33;;;;;;;15.10;13.90;;;28.10;1.00;;;;;;6319273;28;20242;-56
2022/07/01 09:10:43;;;;;;;13.67;12.67;;;28.10;1.00;;;;;;6328799;27;20315;-55
2022/07/01 09:14:06;;;;;;;14.83;13.70;;;28.20;1.00;;;;;;6328724;28;20823;-56
2022/07/01 09:17:19;;;;;;;14.47;13.30;;;28.30;1.00;;;;;;6323928;28;20238;-55
2022/07/01 09:20:34;;;;;;;14.27;12.93;;;28.30;1.00;;;;;;6331798;28;20273;-56
2022/07/01 09:23:39;;;;;;;15.10;13.90;;;28.30;1.00;;;;;;6322405;28;20275;-55
2022/07/01 09:26:51;;;;;;;16.10;14.70;;;28.00;1.00;;;;;;6329245;28;20240;-56
2022/07/01 09:29:54;;;;;;;8.43;7.80;;;27.80;1.00;;;;;;6329007;28;20831;-54
2022/07/01 09:33:07;;;;;;;11.10;5.10;;;27.10;1.00;;;;;;6330307;28;20370;-58
2022/07/01 09:36:16;;;;;;;9.43;5.10;;;26.00;1.00;;;;;;6326225;28;20373;-54
2022/07/01 09:39:25;;;;;;;6.10;4.37;;;25.40;1.00;;;;;;6324339;28;20228;-55
2022/07/01 09:42:46;;;;;;;6.93;4.43;;;24.70;1.00;;;;;;6331550;28;20744;-54
2022/07/01 09:45:57;;;;;;;9.57;4.50;;;24.00;1.00;;;;;;6323997;28;20318;-56
2022/07/01 09:49:01;;;;;;;3.23;3.10;;;23.70;1.00;;;;;;6322774;28;20232;-55
2022/07/01 09:52:06;;;;;;;7.70;3.00;;;23.30;1.00;;;;;;6320127;28;20784;-55
2022/07/01 09:55:12;;;;;;;6.03;3.10;;;23.10;1.00;;;;;;6329709;28;20711;-54
2022/07/01 09:58:15;;;;;;;4.23;2.80;;;22.70;1.00;;;;;;6321853;28;20394;-55
2022/07/01 10:01:19;;;;;;;2.27;2.23;;;22.60;1.00;;;;;;6325518;28;20308;-56
2022/07/01 10:04:25;;;;;;;2.80;2.20;;;22.50;1.00;;;;;;6322205;28;20535;-54
2022/07/01 10:07:46;;;;;;;2.50;2.30;;;22.30;1.00;;;;;;6311683;28;20240;-55
2022/07/01 10:10:55;;;;;;;2.63;2.60;;;22.20;1.00;;;;;;6330550;28;20580;-56
2022/07/01 10:13:59;;;;;;;3.00;2.47;;;22.10;1.00;;;;;;6331733;28;20804;-55
2022/07/01 10:17:03;;;;;;;3.00;3.00;;;22.20;1.00;;;;;;6322888;28;20260;-54
2022/07/01 10:20:12;;;;;;;2.43;2.33;;;22.30;1.00;;;;;;6322258;28;20862;-55
2022/07/01 10:23:20;;;;;;;2.20;2.10;;;22.30;1.00;;;;;;6326108;28;20270;-55
2022/07/01 10:26:30;;;;;;;2.10;2.00;;;22.20;1.00;;;;;;6324947;28;20440;-55
2022/07/01 10:29:35;;;;;;;2.40;2.30;;;21.80;1.00;;;;;;6328384;28;20628;-54
2022/07/01 10:32:47;;;;;;;2.57;2.47;;;21.50;1.00;;;;;;6297049;28;20324;-56
2022/07/01 10:36:09;;;;;;;3.27;3.03;;;21.30;1.00;;;;;;6326486;28;20235;-55
2022/07/01 10:39:17;;;;;;;2.73;2.57;;;21.20;1.00;;;;;;6327065;28;20563;-54
2022/07/01 10:42:20;;;;;;;2.93;2.83;;;21.10;1.00;;;;;;6320592;28;20745;-55
2022/07/01 10:45:24;;;;;;;2.57;2.57;;;21.00;1.00;;;;;;6315455;28;20250;-56
2022/07/01 10:48:31;;;;;;;4.70;2.80;;;20.90;1.00;;;;;;6323887;28;20284;-55
2022/07/01 10:51:48;;;;;;;2.70;2.60;;;20.80;1.00;;;;;;6313443;28;20229;-55
2022/07/01 10:54:55;;;;;;;2.47;2.47;;;20.70;1.00;;;;;;6307986;28;20487;-55
2022/07/01 10:58:11;;;;;;;2.40;2.40;;;20.70;1.00;;;;;;6323713;28;20235;-55
2022/07/01 11:01:14;;;;;;;2.30;2.20;;;20.60;1.00;;;;;;6322744;28;20452;-55
2022/07/01 11:04:17;;;;;;;2.03;1.90;;;20.60;1.00;;;;;;6313407;28;20718;-55
2022/07/01 11:07:21;;;;;;;1.83;1.83;;;20.50;1.00;;;;;;6322193;28;20224;-56
2022/07/01 11:10:26;;;;;;;2.03;1.90;;;20.40;1.00;;;;;;6327627;28;20317;-56
2022/07/01 11:13:29;;;;;;;1.70;1.70;;;20.20;1.00;;;;;;6324832;28;20244;-53
2022/07/01 11:16:32;;;;;;;1.43;1.43;;;20.10;1.00;;;;;;6320075;28;20627;-54
2022/07/01 11:19:36;;;;;;;1.47;1.47;;;19.90;1.00;;;;;;6326742;28;20255;-55
2022/07/01 11:22:40;;;;;;;1.50;1.50;;;19.90;1.00;;;;;;6328251;28;20660;-55
2022/07/01 11:25:45;;;;;;;2.43;1.70;;;19.70;1.00;;;;;;6332266;28;20357;-55
2022/07/01 11:28:48;;;;;;;1.80;1.70;;;19.60;1.00;;;;;;6303585;28;20331;-54
2022/07/01 11:31:51;;;;;;;1.80;1.80;;;19.70;1.00;;;;;;6329669;28;20381;-55
2022/07/01 11:34:54;;;;;;;1.93;1.90;;;19.60;1.00;;;;;;6334734;28;20758;-54
2022/07/01 11:41:28;;;;;;;1.90;1.77;;;19.40;1.00;;;;;;6309661;28;20224;-51
2022/07/01 11:44:34;;;;;;;2.03;1.90;;;19.30;1.00;;;;;;6327310;28;20304;-54
2022/07/01 11:47:36;;;;;;;2.40;2.10;;;19.30;1.00;;;;;;6333293;28;20294;-56
2022/07/01 11:50:39;;;;;;;2.13;1.93;;;19.40;1.00;;;;;;6332791;28;20393;-57
2022/07/01 11:53:44;;;;;;;2.13;2.03;;;19.60;1.00;;;;;;6332198;28;20252;-55
2022/07/01 11:56:49;;;;;;;2.10;2.10;;;19.80;1.00;;;;;;6323536;28;20312;-56
2022/07/01 11:59:58;;;;;;;2.27;2.27;;;19.80;1.00;;;;;;6328264;28;20378;-56
2022/07/01 12:03:01;;;;;;;2.07;1.97;;;19.80;1.00;;;;;;6326707;28;20259;-55
2022/07/01 12:06:07;;;;;;;2.40;2.20;;;19.90;1.00;;;;;;6329916;28;20378;-53
2022/07/01 12:09:13;;;;;;;2.10;2.10;;;19.70;1.00;;;;;;6322747;28;20285;-55
2022/07/01 12:12:19;;;;;;;2.20;2.10;;;19.70;1.00;;;;;;6330300;28;20311;-54
2022/07/01 12:15:23;;;;;;;3.77;3.57;;;19.60;1.00;;;;;;6333055;28;20224;-57
2022/07/01 12:18:27;;;;;;;3.80;3.70;;;19.70;1.00;;;;;;6330633;28;20567;-56
2022/07/01 12:21:32;;;;;;;3.63;3.50;;;20.00;1.00;;;;;;6320747;28;20706;-55
2022/07/01 12:24:43;;;;;;;3.83;3.73;;;20.10;1.00;;;;;;6331831;28;20785;-55
2022/07/01 12:27:47;;;;;;;4.53;4.43;;;20.40;1.00;;;;;;6330648;28;20243;-55
2022/07/01 12:30:59;;;;;;;4.50;4.30;;;20.40;1.00;;;;;;6326586;28;20512;-55
2022/07/01 12:34:02;;;;;;;4.73;4.50;;;20.40;1.00;;;;;;6315446;28;20252;-55
2022/07/01 12:37:09;;;;;;;4.53;4.43;;;20.30;1.00;;;;;;6326913;28;20239;-59
2022/07/01 12:40:22;;;;;;;5.07;4.83;;;20.20;1.00;;;;;;6333525;28;20304;-55
2022/07/01 12:43:37;;;;;;;4.70;4.50;;;20.10;1.00;;;;;;6324135;28;20232;-55
2022/07/01 12:46:41;;;;;;;5.47;5.17;;;20.10;1.00;;;;;;6327386;28;20347;-55
2022/07/01 12:49:44;;;;;;;4.93;4.77;;;20.20;1.00;;;;;;6327168;28;20324;-57
2022/07/01 12:52:58;;;;;;;5.17;5.07;;;20.10;1.00;;;;;;6322522;28;20228;-55
2022/07/01 12:56:03;;;;;;;4.80;4.70;;;20.00;1.00;;;;;;6329685;28;20445;-55
2022/07/01 12:59:07;;;;;;;5.37;5.07;;;20.10;1.00;;;;;;6330839;28;20543;-56
2022/07/01 13:02:13;;;;;;;5.47;5.17;;;20.20;1.00;;;;;;6331470;27;20656;-56
2022/07/01 13:05:16;;;;;;;5.50;5.23;;;20.10;1.00;;;;;;6327483;28;20250;-54
2022/07/01 13:08:22;;;;;;;4.80;4.70;;;19.90;1.00;;;;;;6309103;28;20232;-55
2022/07/01 13:11:25;;;;;;;5.33;5.10;;;19.80;1.00;;;;;;6323616;28;20260;-56
2022/07/01 13:14:29;;;;;;;5.73;5.43;;;19.80;1.00;;;;;;6324662;27;20325;-54
2022/07/01 13:17:32;;;;;;;5.60;5.43;;;19.70;1.00;;;;;;6321708;28;20252;-56
2022/07/01 13:20:40;;;;;;;5.70;5.47;;;19.60;1.00;;;;;;6324593;28;20283;-56
2022/07/01 13:23:43;;;;;;;5.80;5.60;;;19.60;1.00;;;;;;6291455;28;20710;-54
2022/07/01 13:26:46;;;;;;;5.80;5.60;;;19.40;1.00;;;;;;6325482;27;20228;-54
2022/07/01 13:29:50;;;;;;;5.60;5.20;;;19.20;1.00;;;;;;6326062;28;20496;-55
2022/07/01 13:32:57;;;;;;;5.30;5.10;;;19.30;1.00;;;;;;6323599;28;20292;-55
2022/07/01 13:36:00;;;;;;;5.33;5.13;;;19.30;1.00;;;;;;6322749;28;20370;-56
2022/07/01 13:39:03;;;;;;;4.90;4.80;;;19.20;1.00;;;;;;6328056;28;20228;-55
2022/07/01 13:42:06;;;;;;;5.00;4.90;;;19.20;1.00;;;;;;6332266;28;20527;-56
2022/07/01 13:45:13;;;;;;;5.40;5.20;;;19.10;1.00;;;;;;6331950;28;20278;-54
2022/07/01 13:48:16;;;;;;;5.87;5.03;;;19.00;1.00;;;;;;6328611;28;20232;-55
2022/07/01 13:51:19;;;;;;;5.27;5.00;;;19.00;1.00;;;;;;6329530;28;20242;-54
2022/07/01 13:54:22;;;;;;;5.33;5.13;;;18.90;1.00;;;;;;6330292;28;20354;-55
2022/07/01 13:57:25;;;;;;;5.50;5.10;;;18.90;1.00;;;;;;6325263;28;20353;-55
2022/07/01 14:00:30;;;;;;;5.87;5.47;;;18.90;1.00;;;;;;6322812;28;20421;-55
2022/07/01 14:03:32;;;;;;;4.53;4.43;;;18.90;1.00;;;;;;6326858;28;20235;-56
2022/07/01 14:06:35;;;;;;;4.20;4.10;;;18.80;1.00;;;;;;6325030;28;20850;-53
2022/07/01 14:09:40;;;;;;;5.07;4.97;;;18.80;1.00;;;;;;6326787;28;20319;-55
2022/07/01 14:12:44;;;;;;;5.23;5.03;;;18.90;1.00;;;;;;6323389;28;20228;-54
2022/07/01 14:15:48;;;;;;;5.40;5.20;;;18.80;1.00;;;;;;6327633;28;20601;-54
2022/07/01 14:18:51;;;;;;;4.90;4.80;;;18.70;1.00;;;;;;6324543;27;20315;-47
2022/07/01 14:21:55;;;;;;;4.63;4.43;;;18.70;1.00;;;;;;6319535;28;20462;-54
2022/07/01 14:24:58;;;;;;;4.40;4.30;;;18.60;1.00;;;;;;6320728;28;20232;-55
2022/07/01 14:28:02;;;;;;;4.23;4.03;;;18.60;1.00;;;;;;6309227;28;20606;-55
2022/07/01 14:31:07;;;;;;;4.00;3.90;;;18.60;1.00;;;;;;6317117;28;20349;-55
2022/07/01 14:34:10;;;;;;;3.90;3.60;;;18.60;1.00;;;;;;6325630;28;20235;-55
2022/07/01 14:37:13;;;;;;;3.83;3.73;;;18.60;1.00;;;;;;6318787;28;20820;-54
2022/07/01 14:40:16;;;;;;;3.93;3.83;;;18.50;1.00;;;;;;6318031;28;20677;-55
2022/07/01 14:43:19;;;;;;;3.77;3.67;;;18.60;1.00;;;;;;6315798;28;20236;-55
2022/07/01 14:46:30;;;;;;;3.90;3.70;;;18.60;1.00;;;;;;6313299;28;20960;-55
2022/07/01 14:49:35;;;;;;;4.33;4.23;;;18.60;1.00;;;;;;6320934;28;20321;-54
2022/07/01 14:52:42;;;;;;;4.30;4.27;;;18.60;1.00;;;;;;6323463;28;20228;-56
2022/07/01 14:55:45;;;;;;;4.67;4.57;;;18.50;1.00;;;;;;6333772;28;20275;-56
2022/07/01 14:58:48;;;;;;;4.60;4.50;;;18.40;1.00;;;;;;6332650;27;20228;-56
2022/07/01 15:01:55;;;;;;;4.60;4.50;;;18.30;1.00;;;;;;6327809;28;20676;-54
2022/07/01 15:05:01;;;;;;;4.70;4.50;;;18.20;1.00;;;;;;6333403;28;20345;-55
2022/07/01 15:08:14;;;;;;;5.43;5.17;;;18.00;1.00;;;;;;6333070;28;20323;-55
2022/07/01 15:11:17;;;;;;;5.20;5.10;;;17.90;1.00;;;;;;6327568;28;20244;-55
2022/07/01 15:14:20;;;;;;;5.40;5.23;;;18.00;1.00;;;;;;6331232;28;20232;-55
2022/07/01 15:17:25;;;;;;;5.00;4.90;;;18.00;1.00;;;;;;6319733;28;20285;-54
2022/07/01 15:20:28;;;;;;;5.10;5.00;;;18.00;1.00;;;;;;6333970;28;20556;-54
2022/07/01 15:23:30;;;;;;;4.93;4.83;;;18.00;1.00;;;;;;6331465;28;20312;-57
2022/07/01 15:26:34;;;;;;;4.93;4.67;;;18.00;1.00;;;;;;6335124;28;20270;-56
2022/07/01 15:29:37;;;;;;;4.87;4.77;;;18.00;1.00;;;;;;6330710;28;20242;-54
2022/07/01 15:32:41;;;;;;;4.57;4.50;;;18.00;1.00;;;;;;6334352;28;20425;-55
2022/07/01 15:35:45;;;;;;;5.33;5.10;;;17.90;1.00;;;;;;6306972;28;20232;-57
2022/07/01 15:38:48;;;;;;;5.07;4.97;;;17.80;1.00;;;;;;6329049;28;20724;-55
2022/07/01 15:41:51;;;;;;;5.63;5.50;;;17.90;1.00;;;;;;6333282;28;20331;-56
2022/07/01 15:45:00;;;;;;;6.10;5.83;;;17.70;1.00;;;;;;6327395;28;20365;-57
2022/07/01 15:48:08;;;;;;;6.23;5.93;;;17.70;1.00;;;;;;6329887;28;20255;-55
2022/07/01 15:51:12;;;;;;;6.50;6.07;;;17.70;1.00;;;;;;6305443;28;20486;-57
2022/07/01 15:54:15;;;;;;;5.83;5.63;;;17.70;1.00;;;;;;6320123;28;20834;-55
2022/07/01 15:57:18;;;;;;;5.40;5.30;;;17.70;1.00;;;;;;6333731;28;20348;-58
2022/07/01 16:00:21;;;;;;;6.03;5.73;;;17.70;1.00;;;;;;6327262;28;20400;-56
2022/07/01 16:03:25;;;;;;;5.53;5.30;;;17.70;1.00;;;;;;6328280;28;20313;-55
2022/07/01 16:06:29;;;;;;;5.43;5.13;;;17.70;1.00;;;;;;6332610;27;20327;-58
2022/07/01 16:09:37;;;;;;;5.20;5.00;;;17.70;1.00;;;;;;6323352;27;20637;-57
2022/07/01 16:12:45;;;;;;;5.43;5.13;;;17.80;1.00;;;;;;6332179;28;20236;-57
2022/07/01 16:16:01;;;;;;;5.27;4.83;;;17.80;1.00;;;;;;6333915;28;20249;-58